sensor_id;sensor_type;location;lat;lon;timestamp;P1;durP1;ratioP1;P2;durP2;ratioP2
75096;SDS011;63684;47.964;11.186;2024-02-28T00:00:57;24.63;;;18.03;;
75096;SDS011;63684;47.964;11.186;2024-02-28T00:03:23;25.00;;;17.83;;
75096;SDS011;63684;47.964;11.186;2024-02-28T00:05:49;22.40;;;17.50;;
75096;SDS011;63684;47.964;11.186;2024-02-28T00:08:14;24.43;;;17.47;;
75096;SDS011;63684;47.964;11.186;2024-02-28T00:10:40;22.37;;;16.37;;
75096;SDS011;63684;47.964;11.186;2024-02-28T00:13:05;24.13;;;16.87;;
75096;SDS011;63684;47.964;11.186;2024-02-28T00:15:32;21.53;;;16.20;;
75096;SDS011;63684;47.964;11.186;2024-02-28T00:17:57;24.93;;;17.93;;
75096;SDS011;63684;47.964;11.186;2024-02-28T00:20:23;25.57;;;16.60;;
75096;SDS011;63684;47.964;11.186;2024-02-28T00:22:52;22.90;;;17.40;;
75096;SDS011;63684;47.964;11.186;2024-02-28T00:25:18;24.30;;;17.13;;
75096;SDS011;63684;47.964;11.186;2024-02-28T00:27:43;23.50;;;16.47;;
75096;SDS011;63684;47.964;11.186;2024-02-28T00:30:09;24.67;;;17.00;;
75096;SDS011;63684;47.964;11.186;2024-02-28T00:32:34;25.43;;;16.93;;
75096;SDS011;63684;47.964;11.186;2024-02-28T00:35:00;23.93;;;17.23;;
75096;SDS011;63684;47.964;11.186;2024-02-28T00:37:25;23.63;;;17.03;;
75096;SDS011;63684;47.964;11.186;2024-02-28T00:39:51;22.53;;;17.10;;
75096;SDS011;63684;47.964;11.186;2024-02-28T00:42:16;23.23;;;17.60;;
75096;SDS011;63684;47.964;11.186;2024-02-28T00:44:42;22.13;;;16.47;;
75096;SDS011;63684;47.964;11.186;2024-02-28T00:47:08;21.17;;;16.73;;
75096;SDS011;63684;47.964;11.186;2024-02-28T00:49:34;25.00;;;17.07;;
75096;SDS011;63684;47.964;11.186;2024-02-28T00:52:00;23.57;;;17.13;;
75096;SDS011;63684;47.964;11.186;2024-02-28T00:54:25;23.40;;;16.80;;
75096;SDS011;63684;47.964;11.186;2024-02-28T00:56:51;24.00;;;17.47;;
75096;SDS011;63684;47.964;11.186;2024-02-28T00:59:16;24.90;;;16.70;;
75096;SDS011;63684;47.964;11.186;2024-02-28T01:01:42;21.47;;;16.47;;
75096;SDS011;63684;47.964;11.186;2024-02-28T01:04:07;24.13;;;16.87;;
75096;SDS011;63684;47.964;11.186;2024-02-28T01:06:33;24.53;;;17.13;;
75096;SDS011;63684;47.964;11.186;2024-02-28T01:08:58;23.70;;;16.53;;
75096;SDS011;63684;47.964;11.186;2024-02-28T01:11:24;20.50;;;16.30;;
75096;SDS011;63684;47.964;11.186;2024-02-28T01:13:50;22.43;;;17.93;;
75096;SDS011;63684;47.964;11.186;2024-02-28T01:16:16;24.13;;;17.20;;
75096;SDS011;63684;47.964;11.186;2024-02-28T01:18:41;23.40;;;17.77;;
75096;SDS011;63684;47.964;11.186;2024-02-28T01:21:07;22.23;;;17.57;;
75096;SDS011;63684;47.964;11.186;2024-02-28T01:23:32;21.80;;;17.20;;
75096;SDS011;63684;47.964;11.186;2024-02-28T01:25:58;24.67;;;17.37;;
75096;SDS011;63684;47.964;11.186;2024-02-28T01:28:24;21.90;;;17.50;;
75096;SDS011;63684;47.964;11.186;2024-02-28T01:30:49;25.67;;;18.83;;
75096;SDS011;63684;47.964;11.186;2024-02-28T01:33:14;23.43;;;17.30;;
75096;SDS011;63684;47.964;11.186;2024-02-28T01:35:40;23.60;;;17.00;;
75096;SDS011;63684;47.964;11.186;2024-02-28T01:38:05;23.93;;;17.37;;
75096;SDS011;63684;47.964;11.186;2024-02-28T01:40:31;24.90;;;16.60;;
75096;SDS011;63684;47.964;11.186;2024-02-28T01:43:08;22.30;;;16.43;;
75096;SDS011;63684;47.964;11.186;2024-02-28T01:45:34;24.53;;;17.40;;
75096;SDS011;63684;47.964;11.186;2024-02-28T01:48:00;22.23;;;15.87;;
75096;SDS011;63684;47.964;11.186;2024-02-28T01:50:27;21.37;;;16.20;;
75096;SDS011;63684;47.964;11.186;2024-02-28T01:52:52;23.07;;;16.53;;
75096;SDS011;63684;47.964;11.186;2024-02-28T01:55:18;20.73;;;15.70;;
75096;SDS011;63684;47.964;11.186;2024-02-28T01:57:43;21.57;;;16.13;;
75096;SDS011;63684;47.964;11.186;2024-02-28T02:00:09;22.60;;;17.50;;
75096;SDS011;63684;47.964;11.186;2024-02-28T02:02:36;21.97;;;15.97;;
75096;SDS011;63684;47.964;11.186;2024-02-28T02:05:02;24.70;;;17.10;;
75096;SDS011;63684;47.964;11.186;2024-02-28T02:07:27;29.47;;;17.73;;
75096;SDS011;63684;47.964;11.186;2024-02-28T02:09:53;21.50;;;17.57;;
75096;SDS011;63684;47.964;11.186;2024-02-28T02:12:19;24.90;;;17.67;;
75096;SDS011;63684;47.964;11.186;2024-02-28T02:14:48;24.10;;;18.20;;
75096;SDS011;63684;47.964;11.186;2024-02-28T02:17:14;25.90;;;18.37;;
75096;SDS011;63684;47.964;11.186;2024-02-28T02:19:39;26.87;;;18.63;;
75096;SDS011;63684;47.964;11.186;2024-02-28T02:22:05;27.43;;;18.57;;
75096;SDS011;63684;47.964;11.186;2024-02-28T02:24:33;27.60;;;18.60;;
75096;SDS011;63684;47.964;11.186;2024-02-28T02:26:59;26.67;;;18.23;;
75096;SDS011;63684;47.964;11.186;2024-02-28T02:29:24;28.70;;;19.70;;
75096;SDS011;63684;47.964;11.186;2024-02-28T02:31:50;24.47;;;17.90;;
75096;SDS011;63684;47.964;11.186;2024-02-28T02:34:15;27.50;;;20.67;;
75096;SDS011;63684;47.964;11.186;2024-02-28T02:36:41;26.27;;;19.40;;
75096;SDS011;63684;47.964;11.186;2024-02-28T02:39:06;26.63;;;18.20;;
75096;SDS011;63684;47.964;11.186;2024-02-28T02:41:33;29.37;;;19.97;;
75096;SDS011;63684;47.964;11.186;2024-02-28T02:43:59;27.10;;;19.50;;
75096;SDS011;63684;47.964;11.186;2024-02-28T02:46:24;24.93;;;19.03;;
75096;SDS011;63684;47.964;11.186;2024-02-28T02:48:50;24.63;;;18.83;;
75096;SDS011;63684;47.964;11.186;2024-02-28T02:51:15;27.50;;;18.90;;
75096;SDS011;63684;47.964;11.186;2024-02-28T02:53:42;29.43;;;20.03;;
75096;SDS011;63684;47.964;11.186;2024-02-28T02:56:08;27.00;;;20.53;;
75096;SDS011;63684;47.964;11.186;2024-02-28T02:58:33;25.53;;;19.23;;
75096;SDS011;63684;47.964;11.186;2024-02-28T03:00:59;27.83;;;18.83;;
75096;SDS011;63684;47.964;11.186;2024-02-28T03:03:24;30.03;;;21.40;;
75096;SDS011;63684;47.964;11.186;2024-02-28T03:05:50;28.47;;;19.63;;
75096;SDS011;63684;47.964;11.186;2024-02-28T03:08:15;31.67;;;20.90;;
75096;SDS011;63684;47.964;11.186;2024-02-28T03:10:41;29.30;;;21.83;;
75096;SDS011;63684;47.964;11.186;2024-02-28T03:13:06;28.73;;;20.83;;
75096;SDS011;63684;47.964;11.186;2024-02-28T03:15:32;32.73;;;20.00;;
75096;SDS011;63684;47.964;11.186;2024-02-28T03:17:58;31.27;;;21.80;;
75096;SDS011;63684;47.964;11.186;2024-02-28T03:20:23;30.33;;;20.77;;
75096;SDS011;63684;47.964;11.186;2024-02-28T03:22:49;27.43;;;19.80;;
75096;SDS011;63684;47.964;11.186;2024-02-28T03:25:14;31.00;;;20.60;;
75096;SDS011;63684;47.964;11.186;2024-02-28T03:27:40;30.27;;;21.23;;
75096;SDS011;63684;47.964;11.186;2024-02-28T03:30:05;28.93;;;21.27;;
75096;SDS011;63684;47.964;11.186;2024-02-28T03:32:31;30.90;;;21.27;;
75096;SDS011;63684;47.964;11.186;2024-02-28T03:34:57;28.23;;;20.57;;
75096;SDS011;63684;47.964;11.186;2024-02-28T03:37:22;28.87;;;20.97;;
75096;SDS011;63684;47.964;11.186;2024-02-28T03:39:48;32.20;;;21.23;;
75096;SDS011;63684;47.964;11.186;2024-02-28T03:42:13;29.70;;;21.97;;
75096;SDS011;63684;47.964;11.186;2024-02-28T03:44:39;33.60;;;21.57;;
75096;SDS011;63684;47.964;11.186;2024-02-28T03:47:04;30.17;;;21.37;;
75096;SDS011;63684;47.964;11.186;2024-02-28T03:49:30;33.43;;;22.47;;
75096;SDS011;63684;47.964;11.186;2024-02-28T03:51:55;33.03;;;22.93;;
75096;SDS011;63684;47.964;11.186;2024-02-28T03:54:20;34.37;;;22.47;;
75096;SDS011;63684;47.964;11.186;2024-02-28T03:56:46;33.40;;;23.77;;
75096;SDS011;63684;47.964;11.186;2024-02-28T03:59:11;33.63;;;22.53;;
75096;SDS011;63684;47.964;11.186;2024-02-28T04:01:37;32.60;;;22.13;;
75096;SDS011;63684;47.964;11.186;2024-02-28T04:04:02;36.80;;;23.50;;
75096;SDS011;63684;47.964;11.186;2024-02-28T04:06:28;30.73;;;21.87;;
75096;SDS011;63684;47.964;11.186;2024-02-28T04:08:53;31.97;;;21.73;;
75096;SDS011;63684;47.964;11.186;2024-02-28T04:11:19;40.77;;;23.47;;
75096;SDS011;63684;47.964;11.186;2024-02-28T04:13:45;34.90;;;23.80;;
75096;SDS011;63684;47.964;11.186;2024-02-28T04:16:10;31.53;;;22.97;;
75096;SDS011;63684;47.964;11.186;2024-02-28T04:18:36;32.17;;;24.10;;
75096;SDS011;63684;47.964;11.186;2024-02-28T04:21:02;34.67;;;23.53;;
75096;SDS011;63684;47.964;11.186;2024-02-28T04:23:27;34.73;;;23.97;;
75096;SDS011;63684;47.964;11.186;2024-02-28T04:25:53;35.33;;;23.57;;
75096;SDS011;63684;47.964;11.186;2024-02-28T04:28:19;32.87;;;22.93;;
75096;SDS011;63684;47.964;11.186;2024-02-28T04:30:44;34.23;;;23.17;;
75096;SDS011;63684;47.964;11.186;2024-02-28T04:33:09;35.23;;;23.43;;
75096;SDS011;63684;47.964;11.186;2024-02-28T04:35:35;38.67;;;25.23;;
75096;SDS011;63684;47.964;11.186;2024-02-28T04:38:00;37.80;;;25.40;;
75096;SDS011;63684;47.964;11.186;2024-02-28T04:40:26;37.83;;;24.73;;
75096;SDS011;63684;47.964;11.186;2024-02-28T04:42:51;36.43;;;24.80;;
75096;SDS011;63684;47.964;11.186;2024-02-28T04:45:17;38.93;;;25.60;;
75096;SDS011;63684;47.964;11.186;2024-02-28T04:47:42;42.70;;;25.67;;
75096;SDS011;63684;47.964;11.186;2024-02-28T04:50:09;38.63;;;25.57;;
75096;SDS011;63684;47.964;11.186;2024-02-28T04:52:34;38.47;;;25.40;;
75096;SDS011;63684;47.964;11.186;2024-02-28T04:55:00;45.43;;;25.83;;
75096;SDS011;63684;47.964;11.186;2024-02-28T04:57:26;43.87;;;25.77;;
75096;SDS011;63684;47.964;11.186;2024-02-28T04:59:51;45.47;;;26.67;;
75096;SDS011;63684;47.964;11.186;2024-02-28T05:02:17;48.23;;;27.57;;
75096;SDS011;63684;47.964;11.186;2024-02-28T05:04:43;49.03;;;29.03;;
75096;SDS011;63684;47.964;11.186;2024-02-28T05:07:08;43.90;;;26.97;;
75096;SDS011;63684;47.964;11.186;2024-02-28T05:09:34;50.50;;;29.53;;
75096;SDS011;63684;47.964;11.186;2024-02-28T05:12:00;53.17;;;28.70;;
75096;SDS011;63684;47.964;11.186;2024-02-28T05:14:26;52.17;;;29.40;;
75096;SDS011;63684;47.964;11.186;2024-02-28T05:16:52;56.43;;;29.47;;
75096;SDS011;63684;47.964;11.186;2024-02-28T05:19:17;58.40;;;30.50;;
75096;SDS011;63684;47.964;11.186;2024-02-28T05:21:43;56.67;;;29.90;;
75096;SDS011;63684;47.964;11.186;2024-02-28T05:24:09;56.07;;;30.67;;
75096;SDS011;63684;47.964;11.186;2024-02-28T05:26:35;63.57;;;32.50;;
75096;SDS011;63684;47.964;11.186;2024-02-28T05:29:01;53.43;;;30.63;;
75096;SDS011;63684;47.964;11.186;2024-02-28T05:31:28;53.90;;;31.23;;
75096;SDS011;63684;47.964;11.186;2024-02-28T05:33:54;55.77;;;31.47;;
75096;SDS011;63684;47.964;11.186;2024-02-28T05:36:22;51.30;;;29.43;;
75096;SDS011;63684;47.964;11.186;2024-02-28T05:38:49;62.23;;;31.60;;
75096;SDS011;63684;47.964;11.186;2024-02-28T05:41:18;55.27;;;30.43;;
75096;SDS011;63684;47.964;11.186;2024-02-28T05:43:43;66.77;;;31.27;;
75096;SDS011;63684;47.964;11.186;2024-02-28T05:46:09;65.10;;;33.37;;
75096;SDS011;63684;47.964;11.186;2024-02-28T05:48:35;58.80;;;32.00;;
75096;SDS011;63684;47.964;11.186;2024-02-28T05:51:01;64.73;;;32.17;;
75096;SDS011;63684;47.964;11.186;2024-02-28T05:53:27;71.20;;;33.07;;
75096;SDS011;63684;47.964;11.186;2024-02-28T05:55:52;69.93;;;33.50;;
75096;SDS011;63684;47.964;11.186;2024-02-28T05:58:19;65.07;;;32.93;;
75096;SDS011;63684;47.964;11.186;2024-02-28T06:00:44;55.53;;;31.33;;
75096;SDS011;63684;47.964;11.186;2024-02-28T06:03:10;61.97;;;33.07;;
75096;SDS011;63684;47.964;11.186;2024-02-28T06:05:35;55.17;;;32.50;;
75096;SDS011;63684;47.964;11.186;2024-02-28T06:08:01;57.07;;;32.07;;
75096;SDS011;63684;47.964;11.186;2024-02-28T06:10:26;63.67;;;33.53;;
75096;SDS011;63684;47.964;11.186;2024-02-28T06:12:52;64.27;;;33.63;;
75096;SDS011;63684;47.964;11.186;2024-02-28T06:15:17;63.57;;;32.63;;
75096;SDS011;63684;47.964;11.186;2024-02-28T06:17:43;56.00;;;32.13;;
75096;SDS011;63684;47.964;11.186;2024-02-28T06:20:09;61.13;;;33.67;;
75096;SDS011;63684;47.964;11.186;2024-02-28T06:22:34;63.50;;;34.30;;
75096;SDS011;63684;47.964;11.186;2024-02-28T06:25:00;57.53;;;31.83;;
75096;SDS011;63684;47.964;11.186;2024-02-28T06:27:25;57.97;;;31.93;;
75096;SDS011;63684;47.964;11.186;2024-02-28T06:29:52;65.03;;;33.83;;
75096;SDS011;63684;47.964;11.186;2024-02-28T06:32:17;70.00;;;36.87;;
75096;SDS011;63684;47.964;11.186;2024-02-28T06:34:43;58.30;;;33.93;;
75096;SDS011;63684;47.964;11.186;2024-02-28T06:37:08;60.43;;;33.03;;
75096;SDS011;63684;47.964;11.186;2024-02-28T06:39:34;64.90;;;33.67;;
75096;SDS011;63684;47.964;11.186;2024-02-28T06:41:59;58.70;;;32.57;;
75096;SDS011;63684;47.964;11.186;2024-02-28T06:44:25;64.30;;;35.13;;
75096;SDS011;63684;47.964;11.186;2024-02-28T06:46:50;64.80;;;35.23;;
75096;SDS011;63684;47.964;11.186;2024-02-28T06:49:16;62.57;;;34.77;;
75096;SDS011;63684;47.964;11.186;2024-02-28T06:51:43;61.60;;;31.70;;
75096;SDS011;63684;47.964;11.186;2024-02-28T06:54:09;56.70;;;33.37;;
75096;SDS011;63684;47.964;11.186;2024-02-28T06:56:35;64.07;;;33.97;;
75096;SDS011;63684;47.964;11.186;2024-02-28T06:59:01;54.73;;;32.87;;
75096;SDS011;63684;47.964;11.186;2024-02-28T07:01:27;51.77;;;31.17;;
75096;SDS011;63684;47.964;11.186;2024-02-28T07:03:52;59.80;;;33.57;;
75096;SDS011;63684;47.964;11.186;2024-02-28T07:13:51;57.83;;;32.53;;
75096;SDS011;63684;47.964;11.186;2024-02-28T07:16:17;53.63;;;31.70;;
75096;SDS011;63684;47.964;11.186;2024-02-28T07:18:42;55.60;;;32.43;;
75096;SDS011;63684;47.964;11.186;2024-02-28T07:21:08;55.57;;;32.50;;
75096;SDS011;63684;47.964;11.186;2024-02-28T07:23:33;52.60;;;32.47;;
75096;SDS011;63684;47.964;11.186;2024-02-28T07:25:59;55.43;;;31.37;;
75096;SDS011;63684;47.964;11.186;2024-02-28T07:28:24;54.67;;;31.80;;
75096;SDS011;63684;47.964;11.186;2024-02-28T07:30:50;51.57;;;30.47;;
75096;SDS011;63684;47.964;11.186;2024-02-28T07:33:15;54.80;;;30.37;;
75096;SDS011;63684;47.964;11.186;2024-02-28T07:35:44;59.23;;;32.17;;
75096;SDS011;63684;47.964;11.186;2024-02-28T07:38:12;48.43;;;29.50;;
75096;SDS011;63684;47.964;11.186;2024-02-28T07:40:38;51.73;;;30.53;;
75096;SDS011;63684;47.964;11.186;2024-02-28T07:43:04;50.20;;;30.77;;
75096;SDS011;63684;47.964;11.186;2024-02-28T07:45:29;50.77;;;31.00;;
75096;SDS011;63684;47.964;11.186;2024-02-28T07:47:54;51.93;;;29.70;;
75096;SDS011;63684;47.964;11.186;2024-02-28T07:50:20;48.57;;;31.23;;
75096;SDS011;63684;47.964;11.186;2024-02-28T07:52:45;43.67;;;29.47;;
75096;SDS011;63684;47.964;11.186;2024-02-28T07:55:11;48.63;;;30.83;;
75096;SDS011;63684;47.964;11.186;2024-02-28T07:57:36;52.80;;;31.60;;
75096;SDS011;63684;47.964;11.186;2024-02-28T08:00:02;51.63;;;31.00;;
75096;SDS011;63684;47.964;11.186;2024-02-28T08:02:38;45.47;;;29.50;;
75096;SDS011;63684;47.964;11.186;2024-02-28T08:05:07;50.53;;;31.00;;
75096;SDS011;63684;47.964;11.186;2024-02-28T08:07:39;46.53;;;30.50;;
75096;SDS011;63684;47.964;11.186;2024-02-28T08:10:08;49.93;;;29.77;;
75096;SDS011;63684;47.964;11.186;2024-02-28T08:12:41;47.03;;;28.93;;
75096;SDS011;63684;47.964;11.186;2024-02-28T08:15:09;52.80;;;33.60;;
75096;SDS011;63684;47.964;11.186;2024-02-28T08:17:35;58.53;;;34.03;;
75096;SDS011;63684;47.964;11.186;2024-02-28T08:20:02;57.30;;;34.90;;
75096;SDS011;63684;47.964;11.186;2024-02-28T08:22:30;57.60;;;34.10;;
75096;SDS011;63684;47.964;11.186;2024-02-28T08:24:56;58.20;;;34.47;;
75096;SDS011;63684;47.964;11.186;2024-02-28T08:27:21;58.97;;;35.03;;
75096;SDS011;63684;47.964;11.186;2024-02-28T08:29:48;52.90;;;32.70;;
75096;SDS011;63684;47.964;11.186;2024-02-28T08:32:14;63.40;;;35.03;;
75096;SDS011;63684;47.964;11.186;2024-02-28T08:34:43;56.50;;;33.97;;
75096;SDS011;63684;47.964;11.186;2024-02-28T08:37:09;56.00;;;33.97;;
75096;SDS011;63684;47.964;11.186;2024-02-28T08:39:35;57.30;;;33.50;;
75096;SDS011;63684;47.964;11.186;2024-02-28T08:42:00;54.07;;;32.43;;
75096;SDS011;63684;47.964;11.186;2024-02-28T08:44:26;52.00;;;32.53;;
75096;SDS011;63684;47.964;11.186;2024-02-28T08:46:51;50.87;;;32.13;;
75096;SDS011;63684;47.964;11.186;2024-02-28T08:49:16;56.97;;;33.73;;
75096;SDS011;63684;47.964;11.186;2024-02-28T08:51:42;54.67;;;31.70;;
75096;SDS011;63684;47.964;11.186;2024-02-28T08:54:07;49.40;;;29.83;;
75096;SDS011;63684;47.964;11.186;2024-02-28T08:56:33;49.17;;;31.43;;
75096;SDS011;63684;47.964;11.186;2024-02-28T08:58:59;52.67;;;32.63;;
75096;SDS011;63684;47.964;11.186;2024-02-28T09:01:25;52.33;;;31.77;;
75096;SDS011;63684;47.964;11.186;2024-02-28T09:03:50;53.63;;;30.87;;
75096;SDS011;63684;47.964;11.186;2024-02-28T09:06:16;48.97;;;31.23;;
75096;SDS011;63684;47.964;11.186;2024-02-28T09:08:41;58.70;;;32.00;;
75096;SDS011;63684;47.964;11.186;2024-02-28T09:11:07;50.47;;;29.93;;
75096;SDS011;63684;47.964;11.186;2024-02-28T09:13:32;48.10;;;30.43;;
75096;SDS011;63684;47.964;11.186;2024-02-28T09:15:58;46.73;;;29.20;;
75096;SDS011;63684;47.964;11.186;2024-02-28T09:18:24;49.40;;;30.27;;
75096;SDS011;63684;47.964;11.186;2024-02-28T09:20:49;50.40;;;30.17;;
75096;SDS011;63684;47.964;11.186;2024-02-28T09:23:14;43.60;;;27.80;;
75096;SDS011;63684;47.964;11.186;2024-02-28T09:25:40;43.77;;;28.07;;
75096;SDS011;63684;47.964;11.186;2024-02-28T09:28:05;51.37;;;29.50;;
75096;SDS011;63684;47.964;11.186;2024-02-28T09:30:31;47.37;;;29.20;;
75096;SDS011;63684;47.964;11.186;2024-02-28T09:32:57;45.37;;;29.13;;
75096;SDS011;63684;47.964;11.186;2024-02-28T09:35:22;41.07;;;28.00;;
75096;SDS011;63684;47.964;11.186;2024-02-28T09:37:48;39.87;;;27.37;;
75096;SDS011;63684;47.964;11.186;2024-02-28T09:40:13;46.20;;;29.43;;
75096;SDS011;63684;47.964;11.186;2024-02-28T09:42:39;43.80;;;28.40;;
75096;SDS011;63684;47.964;11.186;2024-02-28T09:45:04;45.73;;;29.30;;
75096;SDS011;63684;47.964;11.186;2024-02-28T09:47:33;47.70;;;30.17;;
75096;SDS011;63684;47.964;11.186;2024-02-28T09:49:58;52.43;;;30.50;;
75096;SDS011;63684;47.964;11.186;2024-02-28T09:52:25;47.53;;;29.73;;
75096;SDS011;63684;47.964;11.186;2024-02-28T09:54:52;45.40;;;28.77;;
75096;SDS011;63684;47.964;11.186;2024-02-28T09:57:18;47.97;;;30.33;;
75096;SDS011;63684;47.964;11.186;2024-02-28T09:59:43;48.83;;;28.93;;
75096;SDS011;63684;47.964;11.186;2024-02-28T10:02:09;44.00;;;29.97;;
75096;SDS011;63684;47.964;11.186;2024-02-28T10:04:36;44.83;;;29.10;;
75096;SDS011;63684;47.964;11.186;2024-02-28T10:07:11;63.57;;;29.40;;
75096;SDS011;63684;47.964;11.186;2024-02-28T10:09:40;45.80;;;28.20;;
75096;SDS011;63684;47.964;11.186;2024-02-28T10:12:07;46.77;;;28.70;;
75096;SDS011;63684;47.964;11.186;2024-02-28T10:14:32;41.40;;;27.57;;
75096;SDS011;63684;47.964;11.186;2024-02-28T10:16:59;41.00;;;27.37;;
75096;SDS011;63684;47.964;11.186;2024-02-28T10:19:24;40.53;;;26.53;;
75096;SDS011;63684;47.964;11.186;2024-02-28T10:21:50;43.00;;;28.03;;
75096;SDS011;63684;47.964;11.186;2024-02-28T10:24:16;43.33;;;27.63;;
75096;SDS011;63684;47.964;11.186;2024-02-28T10:26:44;43.70;;;29.40;;
75096;SDS011;63684;47.964;11.186;2024-02-28T10:29:10;41.03;;;26.57;;
75096;SDS011;63684;47.964;11.186;2024-02-28T10:31:36;41.57;;;26.53;;
75096;SDS011;63684;47.964;11.186;2024-02-28T10:34:01;37.67;;;25.53;;
75096;SDS011;63684;47.964;11.186;2024-02-28T10:36:27;40.73;;;26.60;;
75096;SDS011;63684;47.964;11.186;2024-02-28T10:38:55;40.20;;;26.77;;
75096;SDS011;63684;47.964;11.186;2024-02-28T10:41:21;41.97;;;27.10;;
75096;SDS011;63684;47.964;11.186;2024-02-28T10:43:48;84.67;;;47.13;;
75096;SDS011;63684;47.964;11.186;2024-02-28T10:46:14;45.43;;;29.57;;
75096;SDS011;63684;47.964;11.186;2024-02-28T10:48:39;42.30;;;28.83;;
75096;SDS011;63684;47.964;11.186;2024-02-28T10:51:05;41.53;;;26.83;;
75096;SDS011;63684;47.964;11.186;2024-02-28T10:53:36;38.93;;;25.53;;
75096;SDS011;63684;47.964;11.186;2024-02-28T10:56:05;40.60;;;27.17;;
75096;SDS011;63684;47.964;11.186;2024-02-28T10:58:34;44.33;;;28.40;;
75096;SDS011;63684;47.964;11.186;2024-02-28T11:01:01;43.77;;;29.50;;
75096;SDS011;63684;47.964;11.186;2024-02-28T11:03:27;45.17;;;28.67;;
75096;SDS011;63684;47.964;11.186;2024-02-28T11:05:53;46.90;;;29.57;;
75096;SDS011;63684;47.964;11.186;2024-02-28T11:08:22;43.83;;;28.47;;
75096;SDS011;63684;47.964;11.186;2024-02-28T11:10:57;46.77;;;28.13;;
75096;SDS011;63684;47.964;11.186;2024-02-28T11:13:24;44.67;;;28.73;;
75096;SDS011;63684;47.964;11.186;2024-02-28T11:15:50;43.93;;;28.30;;
75096;SDS011;63684;47.964;11.186;2024-02-28T11:18:16;43.40;;;28.70;;
75096;SDS011;63684;47.964;11.186;2024-02-28T11:20:42;46.17;;;28.10;;
75096;SDS011;63684;47.964;11.186;2024-02-28T11:23:11;42.00;;;27.53;;
75096;SDS011;63684;47.964;11.186;2024-02-28T11:25:37;39.80;;;26.83;;
75096;SDS011;63684;47.964;11.186;2024-02-28T11:28:03;41.93;;;26.97;;
75096;SDS011;63684;47.964;11.186;2024-02-28T11:30:29;38.53;;;26.53;;
75096;SDS011;63684;47.964;11.186;2024-02-28T11:32:54;41.40;;;26.70;;
75096;SDS011;63684;47.964;11.186;2024-02-28T11:35:20;39.43;;;27.07;;
75096;SDS011;63684;47.964;11.186;2024-02-28T11:37:46;40.87;;;26.83;;
75096;SDS011;63684;47.964;11.186;2024-02-28T11:40:12;45.40;;;29.03;;
75096;SDS011;63684;47.964;11.186;2024-02-28T11:42:38;44.83;;;27.47;;
75096;SDS011;63684;47.964;11.186;2024-02-28T11:45:04;45.73;;;28.07;;
75096;SDS011;63684;47.964;11.186;2024-02-28T11:47:34;40.97;;;27.77;;
75096;SDS011;63684;47.964;11.186;2024-02-28T11:50:03;43.40;;;27.30;;
75096;SDS011;63684;47.964;11.186;2024-02-28T11:52:33;46.00;;;28.33;;
75096;SDS011;63684;47.964;11.186;2024-02-28T11:54:59;45.90;;;30.30;;
75096;SDS011;63684;47.964;11.186;2024-02-28T11:57:25;45.27;;;28.97;;
75096;SDS011;63684;47.964;11.186;2024-02-28T11:59:51;50.63;;;30.27;;
75096;SDS011;63684;47.964;11.186;2024-02-28T12:02:17;49.47;;;29.97;;
75096;SDS011;63684;47.964;11.186;2024-02-28T12:04:43;50.63;;;32.03;;
75096;SDS011;63684;47.964;11.186;2024-02-28T12:07:09;48.67;;;29.47;;
75096;SDS011;63684;47.964;11.186;2024-02-28T12:09:34;43.73;;;28.83;;
75096;SDS011;63684;47.964;11.186;2024-02-28T12:12:03;45.57;;;29.37;;
75096;SDS011;63684;47.964;11.186;2024-02-28T12:14:36;48.17;;;29.50;;
75096;SDS011;63684;47.964;11.186;2024-02-28T12:17:02;47.27;;;29.33;;
75096;SDS011;63684;47.964;11.186;2024-02-28T12:19:28;53.07;;;29.83;;
75096;SDS011;63684;47.964;11.186;2024-02-28T12:21:53;46.30;;;29.63;;
75096;SDS011;63684;47.964;11.186;2024-02-28T12:24:19;51.07;;;29.77;;
75096;SDS011;63684;47.964;11.186;2024-02-28T12:26:45;45.37;;;28.83;;
75096;SDS011;63684;47.964;11.186;2024-02-28T12:29:11;46.50;;;29.40;;
75096;SDS011;63684;47.964;11.186;2024-02-28T12:31:37;46.67;;;28.50;;
75096;SDS011;63684;47.964;11.186;2024-02-28T12:34:02;51.60;;;29.50;;
75096;SDS011;63684;47.964;11.186;2024-02-28T12:36:31;49.50;;;28.43;;
75096;SDS011;63684;47.964;11.186;2024-02-28T12:38:57;51.23;;;29.67;;
75096;SDS011;63684;47.964;11.186;2024-02-28T12:41:25;49.67;;;29.63;;
75096;SDS011;63684;47.964;11.186;2024-02-28T12:43:51;49.37;;;30.53;;
75096;SDS011;63684;47.964;11.186;2024-02-28T12:46:16;50.13;;;30.00;;
75096;SDS011;63684;47.964;11.186;2024-02-28T12:48:42;52.83;;;30.03;;
75096;SDS011;63684;47.964;11.186;2024-02-28T12:51:08;55.33;;;31.07;;
75096;SDS011;63684;47.964;11.186;2024-02-28T12:53:36;56.67;;;30.10;;
75096;SDS011;63684;47.964;11.186;2024-02-28T12:56:02;49.37;;;29.63;;
75096;SDS011;63684;47.964;11.186;2024-02-28T12:58:27;49.57;;;29.80;;
75096;SDS011;63684;47.964;11.186;2024-02-28T13:00:53;58.67;;;31.40;;
75096;SDS011;63684;47.964;11.186;2024-02-28T13:03:18;51.60;;;32.00;;
75096;SDS011;63684;47.964;11.186;2024-02-28T13:05:44;54.53;;;30.00;;
75096;SDS011;63684;47.964;11.186;2024-02-28T13:08:10;47.83;;;28.90;;
75096;SDS011;63684;47.964;11.186;2024-02-28T13:10:35;49.47;;;29.57;;
75096;SDS011;63684;47.964;11.186;2024-02-28T13:13:04;50.27;;;27.77;;
75096;SDS011;63684;47.964;11.186;2024-02-28T13:15:31;47.50;;;29.40;;
75096;SDS011;63684;47.964;11.186;2024-02-28T13:17:56;50.23;;;29.97;;
75096;SDS011;63684;47.964;11.186;2024-02-28T13:20:22;46.17;;;28.53;;
75096;SDS011;63684;47.964;11.186;2024-02-28T13:22:47;50.00;;;30.00;;
75096;SDS011;63684;47.964;11.186;2024-02-28T13:25:13;50.13;;;29.63;;
75096;SDS011;63684;47.964;11.186;2024-02-28T13:27:39;53.83;;;29.87;;
75096;SDS011;63684;47.964;11.186;2024-02-28T13:30:05;52.87;;;29.20;;
75096;SDS011;63684;47.964;11.186;2024-02-28T13:32:31;45.23;;;29.07;;
75096;SDS011;63684;47.964;11.186;2024-02-28T13:34:57;42.37;;;26.73;;
75096;SDS011;63684;47.964;11.186;2024-02-28T13:37:22;45.60;;;29.07;;
75096;SDS011;63684;47.964;11.186;2024-02-28T13:39:48;43.87;;;26.63;;
75096;SDS011;63684;47.964;11.186;2024-02-28T13:42:17;44.13;;;27.70;;
75096;SDS011;63684;47.964;11.186;2024-02-28T13:44:45;43.53;;;26.77;;
75096;SDS011;63684;47.964;11.186;2024-02-28T13:47:11;41.17;;;25.77;;
75096;SDS011;63684;47.964;11.186;2024-02-28T13:49:38;42.60;;;25.53;;
75096;SDS011;63684;47.964;11.186;2024-02-28T13:52:04;43.87;;;26.23;;
75096;SDS011;63684;47.964;11.186;2024-02-28T13:54:30;42.33;;;25.60;;
75096;SDS011;63684;47.964;11.186;2024-02-28T13:56:56;42.03;;;25.57;;
75096;SDS011;63684;47.964;11.186;2024-02-28T13:59:22;42.07;;;25.00;;
75096;SDS011;63684;47.964;11.186;2024-02-28T14:01:47;42.57;;;26.10;;
75096;SDS011;63684;47.964;11.186;2024-02-28T14:04:13;44.97;;;26.47;;
75096;SDS011;63684;47.964;11.186;2024-02-28T14:06:38;47.93;;;28.40;;
75096;SDS011;63684;47.964;11.186;2024-02-28T14:09:03;46.97;;;28.23;;